createdAt,value
2019-05-22T00:02:05.032Z,34.83
2019-05-22T00:04:37.874Z,33.23
2019-05-22T00:07:11.084Z,34.93
2019-05-22T00:09:44.892Z,33.40
2019-05-22T00:12:17.697Z,35.57
2019-05-22T00:14:50.711Z,34.00
2019-05-22T00:17:25.489Z,34.37
2019-05-22T00:19:56.938Z,35.83
2019-05-22T00:22:31.735Z,34.30
2019-05-22T00:25:05.060Z,33.63
2019-05-22T00:27:38.320Z,35.03
2019-05-22T00:30:12.110Z,36.67
2019-05-22T00:32:44.061Z,37.07
2019-05-22T00:35:16.567Z,37.40
2019-05-22T00:37:47.991Z,42.27
2019-05-22T00:40:20.630Z,38.20
2019-05-22T00:43:03.275Z,37.43
2019-05-22T00:45:28.223Z,39.57
2019-05-22T00:47:59.682Z,41.03
2019-05-22T00:50:40.762Z,41.07
2019-05-22T00:53:31.484Z,40.70
2019-05-22T00:56:05.773Z,40.03
2019-05-22T00:58:38.930Z,39.80
2019-05-22T01:01:16.546Z,38.33
2019-05-22T01:03:49.187Z,40.43
2019-05-22T01:06:21.657Z,40.60
2019-05-22T01:08:52.947Z,39.33
2019-05-22T01:11:25.640Z,38.50
2019-05-22T01:13:56.906Z,38.50
2019-05-22T01:16:29.861Z,39.10
2019-05-22T01:19:03.205Z,38.63
2019-05-22T01:21:36.581Z,37.07
2019-05-22T01:24:07.854Z,37.87
2019-05-22T01:26:40.511Z,36.23
2019-05-22T01:29:12.243Z,37.00
2019-05-22T01:31:44.888Z,34.77
2019-05-22T01:34:20.971Z,33.07
2019-05-22T01:36:53.519Z,34.03
2019-05-22T01:39:47.792Z,37.17
2019-05-22T01:42:23.406Z,35.03
2019-05-22T01:45:03.835Z,37.13
2019-05-22T01:47:50.878Z,38.30
2019-05-22T01:50:41.064Z,37.43
2019-05-22T01:53:14.357Z,39.70
2019-05-22T01:55:45.799Z,37.97
2019-05-22T01:58:18.535Z,37.23
2019-05-22T02:00:49.975Z,36.30
2019-05-22T02:03:23.213Z,36.77
2019-05-22T02:05:54.407Z,39.30
2019-05-22T02:08:27.682Z,37.70
2019-05-22T02:11:00.039Z,38.77
2019-05-22T02:13:38.728Z,38.33
2019-05-22T02:16:11.587Z,35.77
2019-05-22T02:18:46.198Z,38.80
2019-05-22T02:21:17.815Z,36.33
2019-05-22T02:23:48.909Z,35.63
2019-05-22T02:26:20.943Z,35.13
2019-05-22T02:28:54.856Z,34.00
2019-05-22T02:31:27.886Z,36.87
2019-05-22T02:34:04.795Z,34.77
2019-05-22T02:36:38.812Z,36.27
2019-05-22T02:39:14.073Z,36.17
2019-05-22T02:41:48.053Z,36.73
2019-05-22T02:44:19.354Z,38.00
2019-05-22T02:46:51.177Z,34.57
2019-05-22T02:49:23.958Z,38.63
2019-05-22T02:51:57.248Z,38.60
2019-05-22T02:54:31.974Z,38.73
2019-05-22T02:57:03.675Z,39.60
2019-05-22T02:59:34.584Z,40.03
2019-05-22T03:02:05.965Z,40.13
2019-05-22T03:04:53.517Z,41.67
2019-05-22T03:07:27.586Z,41.80
2019-05-22T03:10:01.295Z,40.53
2019-05-22T03:12:34.750Z,40.07
2019-05-22T03:15:08.857Z,42.47
2019-05-22T03:17:41.985Z,40.80
2019-05-22T03:20:16.796Z,41.87
2019-05-22T03:23:15.523Z,39.43
2019-05-22T03:25:47.914Z,43.13
2019-05-22T03:28:19.426Z,41.67
2019-05-22T03:30:51.893Z,37.23
2019-05-22T03:33:23.998Z,39.70
2019-05-22T03:36:09.824Z,38.23
2019-05-22T03:38:41.845Z,36.77
2019-05-22T03:41:13.650Z,39.47
2019-05-22T03:43:46.287Z,41.47
2019-05-22T03:46:32.601Z,35.20
2019-05-22T03:49:05.065Z,38.93
2019-05-22T03:51:37.347Z,39.57
2019-05-22T03:54:09.337Z,38.13
2019-05-22T03:56:41.484Z,40.17
2019-05-22T03:59:13.648Z,38.00
2019-05-22T04:01:45.218Z,38.10
2019-05-22T04:04:20.300Z,39.00
2019-05-22T04:06:52.580Z,37.07
2019-05-22T04:09:25.232Z,36.63
2019-05-22T04:11:56.900Z,38.20
2019-05-22T04:14:35.756Z,35.73
2019-05-22T04:17:08.910Z,35.80
2019-05-22T04:19:49.122Z,33.27
2019-05-22T04:22:14.421Z,34.87
2019-05-22T04:24:47.246Z,37.33
2019-05-22T04:27:18.809Z,34.90
2019-05-22T04:29:51.304Z,37.73
2019-05-22T04:32:33.179Z,35.37
2019-05-22T04:35:07.441Z,36.23
2019-05-22T04:37:38.807Z,35.27
2019-05-22T04:40:25.812Z,35.10
2019-05-22T04:42:59.626Z,33.57
2019-05-22T04:45:30.772Z,33.33
2019-05-22T04:48:03.421Z,33.47
2019-05-22T04:50:34.789Z,34.33
2019-05-22T04:53:09.104Z,34.37
2019-05-22T04:55:40.642Z,31.20
2019-05-22T04:58:19.268Z,33.67
2019-05-22T05:00:50.591Z,32.47
2019-05-22T05:03:23.252Z,32.73
2019-05-22T05:05:54.251Z,31.60
2019-05-22T05:08:25.840Z,31.90
2019-05-22T05:10:58.442Z,32.33
2019-05-22T05:13:30.032Z,33.63
2019-05-22T05:16:01.110Z,32.73
2019-05-22T05:18:32.709Z,32.90
2019-05-22T05:21:03.756Z,33.33
2019-05-22T05:23:37.350Z,32.03
2019-05-22T05:26:08.898Z,29.83
2019-05-22T05:28:41.596Z,31.20
2019-05-22T05:31:13.554Z,30.37
2019-05-22T05:33:53.577Z,29.17
2019-05-22T05:36:25.015Z,30.37
2019-05-22T05:38:57.376Z,29.63
2019-05-22T05:41:28.675Z,30.20
2019-05-22T05:44:01.295Z,28.77
2019-05-22T05:46:32.863Z,29.23
2019-05-22T05:49:05.204Z,29.13
2019-05-22T05:51:38.907Z,26.77
2019-05-22T05:54:12.746Z,28.70
2019-05-22T05:56:46.081Z,29.40
2019-05-22T05:59:17.906Z,28.43
2019-05-22T06:01:51.228Z,27.20
2019-05-22T06:04:34.855Z,28.70
2019-05-22T06:07:16.036Z,30.03
2019-05-22T06:09:48.487Z,28.50
2019-05-22T06:12:19.692Z,30.50
2019-05-22T06:18:05.667Z,27.93
2019-05-22T06:20:38.547Z,26.60
2019-05-22T06:23:26.401Z,27.17
2019-05-22T06:26:00.565Z,25.40
2019-05-22T06:28:38.806Z,29.07
2019-05-22T06:31:30.362Z,26.87
2019-05-22T06:34:03.668Z,26.37
2019-05-22T06:36:35.278Z,26.10
2019-05-22T06:39:13.946Z,24.87
2019-05-22T06:41:46.743Z,24.80
2019-05-22T06:44:27.175Z,24.73
2019-05-22T06:46:59.463Z,24.60
2019-05-22T06:49:35.306Z,24.67
2019-05-22T06:52:08.142Z,23.00
2019-05-22T06:54:38.810Z,24.17
2019-05-22T06:57:15.975Z,22.93
2019-05-22T06:59:49.166Z,22.60
2019-05-22T07:02:21.308Z,21.63
2019-05-22T07:04:52.645Z,22.33
2019-05-22T07:07:27.833Z,21.73
2019-05-22T07:09:59.326Z,21.80
2019-05-22T07:12:31.421Z,22.57
2019-05-22T07:15:07.110Z,22.57
2019-05-22T07:17:39.902Z,20.70
2019-05-22T07:20:11.571Z,19.73
2019-05-22T07:22:43.709Z,22.30
2019-05-22T07:25:15.191Z,22.47
2019-05-22T07:27:46.639Z,22.40
2019-05-22T07:30:17.956Z,22.20
2019-05-22T07:32:49.029Z,22.97
2019-05-22T07:35:20.791Z,19.87
2019-05-22T07:37:53.228Z,21.37
2019-05-22T07:40:24.972Z,21.63
2019-05-22T07:42:56.934Z,80.80
2019-05-22T07:45:29.389Z,21.33
2019-05-22T07:48:01.082Z,21.40
2019-05-22T07:50:37.144Z,21.63
2019-05-22T07:53:09.007Z,20.50
2019-05-22T07:55:41.703Z,21.50
2019-05-22T07:58:14.782Z,20.93
2019-05-22T08:00:49.071Z,22.80
2019-05-22T08:03:21.650Z,18.80
2019-05-22T08:05:54.083Z,21.20
2019-05-22T08:08:26.614Z,19.97
2019-05-22T08:10:58.240Z,33.33
2019-05-22T08:13:31.246Z,194.47
2019-05-22T08:16:03.348Z,19.93
2019-05-22T08:18:36.547Z,20.87
2019-05-22T08:21:09.287Z,18.13
2019-05-22T08:23:41.139Z,18.33
2019-05-22T08:26:14.676Z,19.27
2019-05-22T08:28:46.625Z,19.43
2019-05-22T08:31:20.755Z,17.70
2019-05-22T08:33:52.911Z,17.23
2019-05-22T08:36:24.158Z,17.03
2019-05-22T08:38:56.064Z,17.47
2019-05-22T08:41:30.140Z,15.27
2019-05-22T08:44:15.411Z,14.73
2019-05-22T08:46:35.906Z,13.60
2019-05-22T08:49:07.901Z,18.83
2019-05-22T08:51:39.420Z,43.97
2019-05-22T08:54:10.884Z,15.00
2019-05-22T08:56:46.203Z,16.17
2019-05-22T08:59:19.756Z,15.63
2019-05-22T09:01:51.498Z,14.83
2019-05-22T09:04:22.594Z,16.73
2019-05-22T09:06:53.969Z,15.90
2019-05-22T09:09:25.950Z,18.10
2019-05-22T09:11:57.325Z,16.63
2019-05-22T09:14:28.681Z,18.10
2019-05-22T09:17:01.132Z,19.50
2019-05-22T09:19:32.276Z,16.13
2019-05-22T09:22:02.497Z,16.40
2019-05-22T09:24:34.271Z,16.10
2019-05-22T09:27:05.682Z,16.83
2019-05-22T09:29:36.868Z,16.10
2019-05-22T09:32:08.190Z,17.03
2019-05-22T09:34:39.620Z,14.97
2019-05-22T09:37:10.904Z,16.90
2019-05-22T09:39:42.144Z,15.87
2019-05-22T09:42:13.461Z,17.33
2019-05-22T09:44:44.680Z,18.60
2019-05-22T09:47:16.880Z,19.40
2019-05-22T09:49:48.345Z,20.53
2019-05-22T09:52:19.784Z,20.53
2019-05-22T09:54:49.997Z,21.00
2019-05-22T09:57:21.415Z,20.90
2019-05-22T09:59:52.520Z,20.63
2019-05-22T10:02:23.999Z,20.43
2019-05-22T10:04:57.881Z,23.13
2019-05-22T10:07:29.473Z,21.67
2019-05-22T10:10:00.533Z,20.67
2019-05-22T10:12:32.020Z,20.70
2019-05-22T10:15:04.792Z,21.27
2019-05-22T10:17:39.829Z,21.10
2019-05-22T10:20:12.022Z,20.47
2019-05-22T10:22:43.173Z,20.77
2019-05-22T10:25:16.976Z,23.07
2019-05-22T10:27:47.973Z,17.87
2019-05-22T10:30:22.719Z,20.10
2019-05-22T10:32:52.964Z,17.20
2019-05-22T10:35:25.334Z,19.33
2019-05-22T10:37:57.522Z,19.53
2019-05-22T10:40:29.031Z,18.67
2019-05-22T10:43:03.091Z,18.20
2019-05-22T10:45:34.677Z,16.87
2019-05-22T10:48:06.272Z,18.57
2019-05-22T10:50:38.951Z,17.20
2019-05-22T10:53:10.486Z,15.83
2019-05-22T10:55:41.668Z,15.50
2019-05-22T10:58:12.870Z,15.07
2019-05-22T11:00:44.523Z,14.67
2019-05-22T11:03:15.717Z,15.23
2019-05-22T11:05:46.023Z,14.67
2019-05-22T11:08:17.824Z,14.90
2019-05-22T11:10:49.424Z,14.87
2019-05-22T11:13:20.939Z,14.30
2019-05-22T11:15:52.362Z,14.00
2019-05-22T11:18:24.721Z,12.97
2019-05-22T11:20:55.982Z,12.17
2019-05-22T11:23:28.058Z,11.80
2019-05-22T11:25:59.313Z,16.20
2019-05-22T11:28:31.490Z,25.87
2019-05-22T11:31:04.240Z,11.17
2019-05-22T11:33:35.895Z,11.47
2019-05-22T11:36:07.904Z,10.30
2019-05-22T11:38:38.140Z,11.37
2019-05-22T11:41:10.580Z,9.23
2019-05-22T11:43:41.908Z,10.33
2019-05-22T11:46:13.575Z,9.40
2019-05-22T11:48:45.098Z,9.70
2019-05-22T11:51:16.372Z,11.93
2019-05-22T11:53:47.368Z,30.50
2019-05-22T11:56:19.429Z,9.70
2019-05-22T11:58:50.876Z,11.73
2019-05-22T12:01:22.408Z,9.70
2019-05-22T12:03:53.851Z,9.00
2019-05-22T12:06:28.954Z,8.67
2019-05-22T12:09:05.460Z,8.97
2019-05-22T12:11:37.383Z,8.17
2019-05-22T12:14:09.025Z,10.33
2019-05-22T12:16:41.873Z,7.90
2019-05-22T12:19:13.397Z,6.80
2019-05-22T12:21:44.566Z,7.33
2019-05-22T12:24:27.045Z,10.37
2019-05-22T12:26:48.962Z,8.57
2019-05-22T12:29:20.870Z,6.83
2019-05-22T12:31:52.431Z,6.97
2019-05-22T12:34:24.456Z,7.23
2019-05-22T12:36:55.548Z,6.93
2019-05-22T12:39:29.130Z,8.00
2019-05-22T12:42:01.441Z,6.47
2019-05-22T12:44:33.052Z,10.57
2019-05-22T12:47:04.565Z,7.13
2019-05-22T12:49:35.412Z,7.73
2019-05-22T12:52:08.280Z,7.70
2019-05-22T12:54:47.132Z,7.40
2019-05-22T12:57:12.729Z,9.60
2019-05-22T12:59:45.555Z,8.17
2019-05-22T13:02:18.029Z,8.57
2019-05-22T13:04:49.425Z,8.03
2019-05-22T13:07:24.254Z,7.73
2019-05-22T13:09:55.705Z,7.60
2019-05-22T13:12:27.259Z,12.43
2019-05-22T13:15:09.122Z,24.07
2019-05-22T13:17:33.184Z,45.23
2019-05-22T13:20:07.706Z,8.00
2019-05-22T13:22:43.711Z,9.07
2019-05-22T13:25:17.615Z,8.20
2019-05-22T13:27:51.295Z,12.50
2019-05-22T13:30:28.686Z,8.70
2019-05-22T13:32:59.786Z,9.87
2019-05-22T13:35:32.845Z,6.53
2019-05-22T13:38:05.167Z,7.30
2019-05-22T13:40:36.577Z,8.87
2019-05-22T13:43:08.442Z,7.70
2019-05-22T13:45:39.761Z,8.07
2019-05-22T13:48:11.749Z,5.60
2019-05-22T13:50:43.748Z,8.00
2019-05-22T13:53:17.482Z,12.67
2019-05-22T13:55:49.693Z,19.93
2019-05-22T13:58:21.683Z,19.00
2019-05-22T14:00:53.269Z,18.33
2019-05-22T14:03:30.292Z,6.80
2019-05-22T14:06:01.518Z,7.00
2019-05-22T14:08:32.951Z,7.23
2019-05-22T14:11:04.412Z,5.63
2019-05-22T14:13:36.120Z,7.70
2019-05-22T14:16:07.646Z,5.47
2019-05-22T14:18:39.014Z,4.77
2019-05-22T14:21:19.492Z,5.47
2019-05-22T14:23:53.651Z,4.30
2019-05-22T14:26:24.780Z,11.17
2019-05-22T14:28:56.260Z,16.60
2019-05-22T14:31:27.578Z,9.87
2019-05-22T14:33:59.574Z,5.37
2019-05-22T14:36:31.121Z,8.93
2019-05-22T14:39:03.822Z,8.73
2019-05-22T14:41:34.892Z,4.93
2019-05-22T14:44:06.218Z,4.70
2019-05-22T14:46:37.363Z,4.60
2019-05-22T14:49:07.687Z,4.33
2019-05-22T14:51:38.973Z,3.80
2019-05-22T14:54:10.554Z,3.67
2019-05-22T14:56:43.247Z,3.40
2019-05-22T14:59:14.453Z,3.67
2019-05-22T15:01:45.966Z,4.33
2019-05-22T15:04:18.168Z,7.60
2019-05-22T15:06:50.167Z,3.60
2019-05-22T15:09:21.240Z,3.80
2019-05-22T15:12:12.557Z,3.70
2019-05-22T15:14:49.379Z,3.97
2019-05-22T15:17:31.664Z,4.10
2019-05-22T15:19:54.404Z,3.50
2019-05-22T15:22:26.172Z,3.80
2019-05-22T15:24:59.080Z,4.27
2019-05-22T15:27:30.120Z,3.97
2019-05-22T15:30:01.551Z,5.27
2019-05-22T15:32:32.661Z,3.87
2019-05-22T15:35:05.860Z,4.47
2019-05-22T15:37:37.631Z,4.70
2019-05-22T15:40:10.290Z,29.17
2019-05-22T15:42:45.829Z,6.50
2019-05-22T15:45:22.699Z,5.00
2019-05-22T15:47:57.572Z,4.40
2019-05-22T15:50:33.729Z,5.47
2019-05-22T15:53:15.008Z,4.93
2019-05-22T15:55:48.648Z,5.20
2019-05-22T15:58:20.623Z,5.13
2019-05-22T16:00:52.755Z,4.70
2019-05-22T16:03:29.002Z,5.40
2019-05-22T16:06:01.564Z,6.53
2019-05-22T16:08:35.590Z,5.50
2019-05-22T16:11:10.438Z,4.70
2019-05-22T16:13:42.191Z,5.20
2019-05-22T16:16:15.095Z,5.43
2019-05-22T16:18:49.113Z,5.03
2019-05-22T16:21:22.670Z,5.20
2019-05-22T16:23:55.017Z,8.53
2019-05-22T16:26:26.888Z,5.23
2019-05-22T16:29:01.003Z,4.77
2019-05-22T16:31:32.761Z,6.03
2019-05-22T16:34:05.449Z,5.20
2019-05-22T16:36:36.985Z,11.63
2019-05-22T16:39:11.118Z,7.83
2019-05-22T16:41:43.198Z,6.83
2019-05-22T16:44:15.217Z,12.00
2019-05-22T16:46:46.943Z,5.87
2019-05-22T16:49:18.253Z,5.83
2019-05-22T16:51:51.065Z,5.33
2019-05-22T16:54:22.455Z,5.20
2019-05-22T16:56:54.422Z,4.23
2019-05-22T16:59:25.598Z,4.60
2019-05-22T17:02:00.589Z,4.70
2019-05-22T17:04:31.760Z,4.60
2019-05-22T17:07:05.142Z,5.10
2019-05-22T17:09:37.493Z,5.43
2019-05-22T17:12:11.432Z,4.53
2019-05-22T17:14:43.306Z,4.87
2019-05-22T17:17:19.467Z,4.63
2019-05-22T17:19:53.158Z,5.10
2019-05-22T17:22:24.859Z,5.13
2019-05-22T17:24:58.056Z,4.90
2019-05-22T17:27:29.881Z,5.20
2019-05-22T17:30:01.118Z,5.70
2019-05-22T17:32:33.403Z,5.60
2019-05-22T17:35:06.638Z,5.10
2019-05-22T17:37:38.076Z,5.33
2019-05-22T17:40:10.562Z,5.10
2019-05-22T17:42:46.138Z,5.50
2019-05-22T17:45:20.552Z,5.30
2019-05-22T17:47:53.647Z,5.50
2019-05-22T17:50:27.813Z,5.73
2019-05-22T17:52:59.810Z,5.57
2019-05-22T17:55:32.451Z,6.30
2019-05-22T17:58:04.152Z,6.00
2019-05-22T18:00:39.800Z,6.13
2019-05-22T18:03:10.926Z,5.87
2019-05-22T18:05:42.539Z,6.67
2019-05-22T18:08:13.938Z,43.83
2019-05-22T18:10:47.341Z,44.27
2019-05-22T18:13:19.324Z,63.33
2019-05-22T18:15:50.672Z,7.10
2019-05-22T18:18:22.077Z,7.03
2019-05-22T18:20:53.277Z,6.93
2019-05-22T18:23:26.349Z,7.70
2019-05-22T18:25:57.387Z,7.00
2019-05-22T18:28:29.117Z,6.53
2019-05-22T18:31:00.443Z,7.13
2019-05-22T18:33:31.774Z,7.70
2019-05-22T18:36:02.877Z,7.50
2019-05-22T18:38:34.362Z,8.10
2019-05-22T18:41:05.321Z,7.17
2019-05-22T18:43:35.801Z,8.00
2019-05-22T18:46:07.406Z,7.80
2019-05-22T18:48:38.546Z,7.10
2019-05-22T18:51:10.264Z,8.47
2019-05-22T18:53:41.600Z,7.93
2019-05-22T18:56:14.349Z,7.73
2019-05-22T18:58:46.470Z,7.70
2019-05-22T19:01:18.190Z,7.23
2019-05-22T19:03:49.077Z,7.97
2019-05-22T19:06:30.475Z,7.33
2019-05-22T19:08:53.388Z,7.60
2019-05-22T19:11:24.704Z,8.23
2019-05-22T19:13:55.643Z,87.73
2019-05-22T19:16:27.849Z,37.40
2019-05-22T19:18:58.771Z,27.03
2019-05-22T19:21:29.004Z,7.40
2019-05-22T19:24:00.224Z,8.63
2019-05-22T19:26:34.400Z,8.27
2019-05-22T19:29:06.082Z,7.87
2019-05-22T19:31:37.247Z,7.90
2019-05-22T19:34:09.632Z,8.43
2019-05-22T19:36:40.670Z,8.50
2019-05-22T19:39:12.155Z,8.53
2019-05-22T19:41:43.252Z,7.60
2019-05-22T19:44:15.863Z,8.17
2019-05-22T19:46:47.106Z,8.90
2019-05-22T19:49:18.908Z,8.37
2019-05-22T19:51:51.536Z,8.47
2019-05-22T19:54:21.680Z,8.87
2019-05-22T19:56:53.470Z,8.50
2019-05-22T19:59:25.215Z,8.57
2019-05-22T20:01:56.506Z,9.40
2019-05-22T20:04:28.159Z,9.20
2019-05-22T20:07:02.630Z,9.37
2019-05-22T20:09:33.615Z,9.67
2019-05-22T20:12:06.895Z,9.23
2019-05-22T20:14:38.199Z,23.03
2019-05-22T20:17:10.895Z,42.70
2019-05-22T20:19:42.608Z,59.07
2019-05-22T20:22:16.958Z,11.57
2019-05-22T20:24:47.919Z,10.00
2019-05-22T20:27:19.253Z,10.67
2019-05-22T20:29:50.981Z,10.27
2019-05-22T20:32:21.052Z,10.03
2019-05-22T20:34:52.719Z,10.07
2019-05-22T20:37:23.945Z,9.90
2019-05-22T20:39:55.261Z,10.10
2019-05-22T20:42:26.889Z,11.07
2019-05-22T20:44:58.311Z,10.43
2019-05-22T20:47:31.357Z,10.57
2019-05-22T20:50:02.617Z,10.70
2019-05-22T20:52:34.476Z,10.37
2019-05-22T20:55:07.848Z,11.00
2019-05-22T20:57:40.612Z,11.20
2019-05-22T21:00:15.935Z,11.77
2019-05-22T21:02:48.567Z,11.67
2019-05-22T21:05:23.926Z,11.80
2019-05-22T21:07:58.508Z,13.63
2019-05-22T21:10:29.809Z,11.57
2019-05-22T21:13:01.485Z,12.27
2019-05-22T21:15:32.845Z,12.30
2019-05-22T21:18:04.661Z,12.40
2019-05-22T21:20:53.307Z,11.40
2019-05-22T21:23:12.101Z,12.00
2019-05-22T21:25:43.263Z,11.97
2019-05-22T21:28:14.588Z,11.37
2019-05-22T21:30:47.235Z,11.30
2019-05-22T21:33:18.728Z,11.07
2019-05-22T21:35:49.877Z,10.27
2019-05-22T21:38:22.756Z,11.70
2019-05-22T21:40:56.588Z,11.17
2019-05-22T21:43:28.550Z,10.57
2019-05-22T21:46:00.113Z,11.20
2019-05-22T21:48:31.579Z,11.40
2019-05-22T21:51:02.989Z,10.93
2019-05-22T21:53:34.869Z,10.17
2019-05-22T21:56:06.440Z,11.40
2019-05-22T21:58:38.568Z,11.40
2019-05-22T22:01:12.943Z,10.63
2019-05-22T22:03:46.475Z,10.33
2019-05-22T22:06:18.362Z,11.43
2019-05-22T22:08:49.541Z,12.83
2019-05-22T22:11:23.774Z,10.67
2019-05-22T22:13:56.014Z,10.63
2019-05-22T22:16:29.256Z,10.23
2019-05-22T22:19:01.395Z,11.53
2019-05-22T22:21:32.955Z,10.97
2019-05-22T22:24:04.038Z,10.80
2019-05-22T22:26:36.853Z,11.20
2019-05-22T22:29:08.214Z,12.10
2019-05-22T22:31:39.697Z,10.93
2019-05-22T22:34:17.406Z,11.87
2019-05-22T22:36:49.347Z,11.33
2019-05-22T22:39:21.798Z,11.90
2019-05-22T22:41:55.856Z,11.40
2019-05-22T22:44:27.696Z,11.00
2019-05-22T22:47:01.497Z,11.57
2019-05-22T22:49:34.711Z,11.03
2019-05-22T22:52:06.373Z,10.80
2019-05-22T22:54:37.934Z,11.17
2019-05-22T22:57:09.407Z,11.50
2019-05-22T22:59:40.836Z,11.07
2019-05-22T23:02:14.647Z,11.37
2019-05-22T23:04:46.585Z,12.27
2019-05-22T23:07:18.969Z,12.90
2019-05-22T23:09:49.296Z,12.00
2019-05-22T23:12:21.387Z,13.40
2019-05-22T23:14:56.854Z,13.57
2019-05-22T23:17:30.059Z,14.03
2019-05-22T23:20:00.021Z,14.30
2019-05-22T23:22:29.932Z,13.27
2019-05-22T23:25:03.618Z,13.87
2019-05-22T23:27:36.595Z,15.20
2019-05-22T23:30:10.832Z,13.63
2019-05-22T23:32:44.244Z,14.33
2019-05-22T23:35:16.444Z,14.83
2019-05-22T23:37:47.646Z,16.00
2019-05-22T23:40:25.637Z,15.47
2019-05-22T23:42:58.835Z,15.17
2019-05-22T23:45:30.363Z,15.17
2019-05-22T23:48:06.365Z,15.30
2019-05-22T23:50:39.209Z,16.07
2019-05-22T23:53:12.300Z,15.73
2019-05-22T23:55:43.977Z,16.17
2019-05-22T23:58:16.118Z,14.70
